Terminal Aerodrome Forecast
Issued by NWS Bismarck, ND

Home | Current Version | Previous Version | Graphics & Text | Print | Product List | Glossary On
Versions: 1 2 3 4 5 6 7 8 9 10 11 12 13
000
FTUS43 KBIS 201139
TAFISN
TAF
KISN 201139Z 2012/2112 36005KT P6SM BKN110
     FM201300 09004KT P6SM BKN200
     FM202100 08008KT P6SM BKN250
     FM210600 VRB04KT P6SM SCT250=

USA.gov is the U.S. government's official web portal to all federal, state and local government web resources and services.